| Date | Time | Temp. (oF) | Dew Point (oF) | Rel. Hum. (%) | Press. (in.) | Wind Dir. | Wind Speed (mph) | Hourly Rainfall (in.) |
|
|---|---|---|---|---|---|---|---|---|---|
| 1 | 11/19 | 00:00 | 35 | 33 | 96 | 30.15 | NNW | 2 | 0.00 |
| 2 | 11/18 | 23:00 | 35 | 33 | 93 | 30.18 | E | 0 | 0.00 |
| 3 | 11/18 | 22:00 | 34 | 31 | 90 | 30.18 | E | 1 | 0.00 |
| 4 | 11/18 | 21:00 | 36 | 32 | 86 | 30.19 | E | 2 | 0.00 |
| 5 | 11/18 | 20:00 | 37 | 32 | 83 | 30.20 | NE | 3 | 0.00 |
| 6 | 11/18 | 19:00 | 39 | 33 | 79 | 30.21 | NE | 2 | 0.00 |
| 7 | 11/18 | 18:00 | 39 | 32 | 78 | 30.22 | E | 2 | 0.00 |
| 8 | 11/18 | 17:00 | 41 | 32 | 71 | 30.23 | E | 4 | 0.00 |
| 9 | 11/18 | 16:00 | 42 | 32 | 68 | 30.23 | S | 3 | 0.00 |
| 10 | 11/18 | 15:00 | 42 | 32 | 70 | 30.23 | SSE | 4 | 0.00 |
| 11 | 11/18 | 14:00 | 42 | 33 | 71 | 30.25 | S | 4 | 0.00 |
| 12 | 11/18 | 13:00 | 41 | 32 | 71 | 30.28 | SSE | 4 | 0.00 |
| 13 | 11/18 | 12:00 | 40 | 32 | 75 | 30.30 | SSE | 4 | 0.00 |
| 14 | 11/18 | 11:00 | 40 | 33 | 76 | 30.33 | E | 6 | 0.00 |
| 15 | 11/18 | 10:00 | 37 | 33 | 87 | 30.35 | SSE | 2 | 0.00 |
| 16 | 11/18 | 09:00 | 34 | 32 | 93 | 30.36 | N | 1 | 0.00 |
| 17 | 11/18 | 08:00 | 32 | 31 | 97 | 30.35 | NNW | 0 | 0.00 |
| 18 | 11/18 | 07:00 | 31 | 30 | 97 | 30.35 | NNW | 1 | 0.00 |
| 19 | 11/18 | 06:00 | 30 | 29 | 98 | 30.35 | SW | 1 | 0.00 |
| 20 | 11/18 | 05:00 | 30 | 29 | 97 | 30.33 | SW | 1 | 0.00 |
| 21 | 11/18 | 04:00 | 29 | 28 | 96 | 30.31 | SW | 0 | 0.00 |
| 22 | 11/18 | 03:00 | 29 | 28 | 96 | 30.32 | SW | 1 | 0.00 |
| 23 | 11/18 | 02:00 | 30 | 28 | 93 | 30.31 | SW | 1 | 0.00 |
| 24 | 11/18 | 01:00 | 31 | 28 | 90 | 30.30 | SW | 1 | 0.00 |